Milladore, WI

6:13 AM CST on December 03, 2016 (GMT -0600)
Blenker, WI | | Change Station

Elev 1191 ft 44.63 °N, 89.91 °W | Updated 15 seconds ago

Overcast
Overcast
29.5 °F
Feels Like 25 °F
N
4.0
Wind Variable Wind from WNW
Gusts 4.9 mph

Today
High -- | Low -- °F
--% Chance of Precip.
Yesterday
High -- | Low -- °F
Precip. -- in
Pressure 30.29 in
Visibility 7.0 miles
Clouds Overcast 1500 ft
Windchill 25 °F
Dew Point 8 °F
Humidity 39%
Rainfall 0.00 in
Snow Depth Not available.
7:18 AM 4:19 PM
Waxing Crescent, 14% visible
METAR KCWA 031145Z 25009KT 7SM OVC015 M02/M04 A3029
Pressure 30.29 in
Visibility 7.0 miles
Clouds Overcast 1500 ft
Windchill 25 °F
Dew Point 8 °F
Humidity 39%
Rainfall 0.00 in
Snow Depth Not available.
7:18 AM 4:19 PM
Waxing Crescent, 14% visible
METAR KCWA 031145Z 25009KT 7SM OVC015 M02/M04 A3029

10-Day Weather Forecast

Almanac

Astronomy

Dec. 03, 2016 Rise Set
Actual Time
Civil Twilight
Nautical Twilight
Astronomical Twilight
Moon
Length of Visible Light
Length of Day
Tomorrow will be .
, % of the Moon is Illuminated

Today's Extremes

State Highs State Lows

Community

WunderPhotos

Upload Photos

1,955,441 photos uploaded!

WunderBlog® & News

Nearby

Air Quality

  Air Quality AQ Index Pollutant
Not available.

Snow Depth

Station Depth Elevation

Earthquake Activity

City Distance Mag. Time & Date
Minimum magnitude displayed is 2.5.

Coastal Water Temperatures

Place Temperature

Stations

Nearby Weather Stations

Station Location Temp. Windchill Dew Point Humidity Wind Precip. Elev Updated Type
                   

Watches & Warnings

There are currently no watches in effect.